Time;durP1;ratioP1;P1;durP2;ratioP2;P2;SDS_P1;SDS_P2;PMS_P1;PMS_P2;Temp;Humidity;BMP_temperature;BMP_pressure;BME280_temperature;BME280_humidity;BME280_pressure;Samples;Min_cycle;Max_cycle;Signal;HPM_P1;HPM_P2
2021/11/20 00:01:28;;;;;;;77.57;15.50;;;;;;;;;;5133955;27;20989;-66
2021/11/20 00:03:56;;;;;;;81.50;16.90;;;;;;;;;;5136541;27;20223;-67
2021/11/20 00:06:24;;;;;;;83.55;18.10;;;;;;;;;;5135685;27;20587;-65
2021/11/20 00:08:52;;;;;;;80.03;15.98;;;;;;;;;;5136086;27;20225;-66
2021/11/20 00:11:21;;;;;;;78.22;16.02;;;;;;;;;;5135834;27;20611;-66
2021/11/20 00:13:49;;;;;;;76.53;14.48;;;;;;;;;;5136384;27;20204;-66
2021/11/20 00:16:17;;;;;;;81.00;15.65;;;;;;;;;;5135193;27;20209;-65
2021/11/20 00:18:44;;;;;;;82.10;16.80;;;;;;;;;;5135901;27;20199;-65
2021/11/20 00:21:14;;;;;;;80.63;16.15;;;;;;;;;;5135510;27;20263;-66
2021/11/20 00:23:42;;;;;;;77.43;16.45;;;;;;;;;;5136222;27;20208;-64
2021/11/20 00:26:12;;;;;;;78.77;16.20;;;;;;;;;;5135654;27;20578;-65
2021/11/20 00:28:42;;;;;;;78.63;16.42;;;;;;;;;;5135587;27;21003;-65
2021/11/20 00:31:10;;;;;;;80.35;15.85;;;;;;;;;;5135492;27;20255;-67
2021/11/20 00:33:39;;;;;;;79.25;15.20;;;;;;;;;;5134499;27;20200;-65
2021/11/20 00:36:06;;;;;;;81.53;17.10;;;;;;;;;;5135278;27;20606;-68
2021/11/20 00:38:33;;;;;;;82.75;16.73;;;;;;;;;;5135102;27;20200;-67
2021/11/20 00:41:02;;;;;;;81.07;16.05;;;;;;;;;;5135252;27;20719;-67
2021/11/20 00:43:30;;;;;;;90.63;17.20;;;;;;;;;;5135453;27;20201;-66
2021/11/20 00:45:58;;;;;;;74.50;14.73;;;;;;;;;;5135139;27;20729;-66
2021/11/20 00:48:26;;;;;;;79.50;15.63;;;;;;;;;;5135379;27;20469;-67
2021/11/20 00:50:54;;;;;;;77.18;15.75;;;;;;;;;;5135217;27;20480;-66
2021/11/20 00:53:21;;;;;;;77.35;15.00;;;;;;;;;;5135638;27;20390;-67
2021/11/20 00:55:49;;;;;;;78.15;15.30;;;;;;;;;;5135002;27;20214;-67
2021/11/20 00:58:16;;;;;;;83.60;17.00;;;;;;;;;;5134592;27;20593;-66
2021/11/20 01:00:45;;;;;;;79.63;16.77;;;;;;;;;;5134697;27;20676;-66
2021/11/20 01:03:13;;;;;;;82.70;16.97;;;;;;;;;;5134069;27;20209;-66
2021/11/20 01:05:42;;;;;;;77.03;14.35;;;;;;;;;;5125859;27;20460;-65
2021/11/20 01:08:10;;;;;;;81.40;16.60;;;;;;;;;;5114765;28;20236;-66
2021/11/20 01:10:39;;;;;;;85.47;15.52;;;;;;;;;;5114106;27;20296;-66
2021/11/20 01:13:06;;;;;;;75.00;14.30;;;;;;;;;;5114564;28;20650;-66
2021/11/20 01:15:35;;;;;;;79.55;17.02;;;;;;;;;;5114167;28;20289;-66
2021/11/20 01:18:04;;;;;;;80.65;14.43;;;;;;;;;;5113778;28;20212;-66
2021/11/20 01:20:32;;;;;;;80.65;15.75;;;;;;;;;;5113777;28;20213;-65
2021/11/20 01:23:00;;;;;;;77.28;15.27;;;;;;;;;;5114372;28;20210;-66
2021/11/20 01:25:27;;;;;;;78.22;15.70;;;;;;;;;;5113715;28;20686;-66
2021/11/20 01:27:54;;;;;;;81.93;15.98;;;;;;;;;;5114132;27;20226;-66
2021/11/20 01:30:22;;;;;;;81.38;16.42;;;;;;;;;;5114435;28;20572;-66
2021/11/20 01:32:49;;;;;;;82.37;17.07;;;;;;;;;;5114108;28;20223;-65
2021/11/20 01:35:18;;;;;;;86.10;16.80;;;;;;;;;;5114118;28;20447;-66
2021/11/20 01:37:46;;;;;;;82.18;14.15;;;;;;;;;;5118020;27;20234;-66
2021/11/20 01:40:15;;;;;;;74.90;14.35;;;;;;;;;;5134116;27;20204;-66
2021/11/20 01:42:42;;;;;;;81.90;16.45;;;;;;;;;;5134039;27;20230;-65
2021/11/20 01:45:11;;;;;;;80.30;15.23;;;;;;;;;;5134255;27;20207;-66
2021/11/20 01:47:40;;;;;;;81.60;15.37;;;;;;;;;;5133858;27;20221;-67
2021/11/20 01:50:11;;;;;;;78.22;14.88;;;;;;;;;;5134154;27;20450;-66
2021/11/20 01:52:44;;;;;;;77.28;14.43;;;;;;;;;;5134175;27;20229;-66
2021/11/20 01:55:14;;;;;;;79.50;15.10;;;;;;;;;;5134041;27;20203;-66
2021/11/20 01:57:44;;;;;;;80.35;15.80;;;;;;;;;;5134016;27;20210;-66
2021/11/20 02:00:13;;;;;;;73.97;13.82;;;;;;;;;;5133160;27;20203;-66
2021/11/20 02:02:46;;;;;;;80.13;14.75;;;;;;;;;;5133827;27;20225;-66
2021/11/20 02:05:16;;;;;;;80.15;14.55;;;;;;;;;;5111747;28;20209;-66
2021/11/20 02:07:48;;;;;;;80.05;17.42;;;;;;;;;;5112974;28;20228;-66
2021/11/20 02:10:16;;;;;;;78.82;15.82;;;;;;;;;;5125145;27;20252;-66
2021/11/20 02:12:45;;;;;;;77.45;15.13;;;;;;;;;;5133878;27;20223;-66
2021/11/20 02:15:13;;;;;;;78.22;14.80;;;;;;;;;;5133410;27;20207;-66
2021/11/20 02:17:42;;;;;;;80.57;15.88;;;;;;;;;;5133026;27;20206;-66
2021/11/20 02:20:11;;;;;;;74.60;13.63;;;;;;;;;;5133045;27;20214;-67
2021/11/20 02:22:38;;;;;;;75.53;13.93;;;;;;;;;;5133359;27;20224;-66
2021/11/20 02:25:05;;;;;;;77.45;13.40;;;;;;;;;;5133731;27;20294;-65
2021/11/20 02:27:35;;;;;;;79.15;14.93;;;;;;;;;;5133200;27;20204;-65
2021/11/20 02:30:19;;;;;;;75.75;14.25;;;;;;;;;;5133256;27;20684;-66
2021/11/20 02:32:47;;;;;;;78.93;14.60;;;;;;;;;;5133502;27;20227;-66
2021/11/20 02:35:18;;;;;;;80.07;13.50;;;;;;;;;;5133357;27;20229;-65
2021/11/20 02:37:46;;;;;;;76.28;13.27;;;;;;;;;;5133120;27;20210;-64
2021/11/20 02:40:13;;;;;;;78.82;13.90;;;;;;;;;;5132601;27;20295;-65
2021/11/20 02:42:40;;;;;;;73.00;12.85;;;;;;;;;;5131273;27;20594;-66
2021/11/20 02:45:20;;;;;;;78.23;14.10;;;;;;;;;;5133354;27;20199;-66
2021/11/20 02:47:47;;;;;;;75.20;13.73;;;;;;;;;;5132802;27;20446;-67
2021/11/20 02:50:15;;;;;;;76.78;13.93;;;;;;;;;;5133279;27;20204;-66
2021/11/20 02:52:42;;;;;;;73.20;12.80;;;;;;;;;;5132934;27;20223;-66
2021/11/20 02:55:10;;;;;;;75.32;13.95;;;;;;;;;;5133173;27;20537;-66
2021/11/20 02:57:38;;;;;;;76.72;13.45;;;;;;;;;;5133032;27;20200;-66
2021/11/20 03:00:06;;;;;;;75.10;13.55;;;;;;;;;;5132187;27;20535;-66
2021/11/20 03:02:35;;;;;;;72.95;12.00;;;;;;;;;;5132656;27;20228;-65
2021/11/20 03:05:02;;;;;;;75.43;13.52;;;;;;;;;;5132803;27;20578;-66
2021/11/20 03:07:29;;;;;;;73.77;12.40;;;;;;;;;;5132414;27;20223;-67
2021/11/20 03:09:57;;;;;;;73.78;13.50;;;;;;;;;;5132909;27;20477;-66
2021/11/20 03:12:24;;;;;;;77.47;13.30;;;;;;;;;;5132628;27;20234;-66
2021/11/20 03:14:51;;;;;;;77.35;13.02;;;;;;;;;;5131226;27;20207;-66
2021/11/20 03:17:19;;;;;;;74.85;12.38;;;;;;;;;;5132537;27;20669;-66
2021/11/20 03:19:48;;;;;;;73.82;12.80;;;;;;;;;;5131857;27;20367;-64
2021/11/20 03:22:17;;;;;;;77.20;13.50;;;;;;;;;;5132147;27;20238;-67
2021/11/20 03:24:44;;;;;;;75.55;13.93;;;;;;;;;;5132837;27;20216;-66
2021/11/20 03:27:12;;;;;;;72.15;11.90;;;;;;;;;;5131690;27;20577;-66
2021/11/20 03:29:39;;;;;;;76.70;13.50;;;;;;;;;;5132544;27;20223;-66
2021/11/20 03:32:07;;;;;;;71.25;11.70;;;;;;;;;;5132286;27;20480;-66
2021/11/20 03:34:35;;;;;;;74.68;13.38;;;;;;;;;;5132365;27;20671;-66
2021/11/20 03:37:04;;;;;;;73.32;11.52;;;;;;;;;;5132169;27;20659;-66
2021/11/20 03:39:31;;;;;;;72.72;11.43;;;;;;;;;;5131794;27;20671;-66
2021/11/20 03:41:58;;;;;;;70.93;10.98;;;;;;;;;;5132217;27;20245;-67
2021/11/20 03:44:25;;;;;;;71.63;11.68;;;;;;;;;;5131149;27;20682;-65
2021/11/20 03:46:53;;;;;;;71.90;10.48;;;;;;;;;;5131315;27;20207;-66
2021/11/20 03:49:20;;;;;;;70.15;10.52;;;;;;;;;;5132113;27;20535;-67
2021/11/20 03:51:47;;;;;;;70.65;11.10;;;;;;;;;;5132555;27;20655;-66
2021/11/20 03:54:16;;;;;;;71.95;11.13;;;;;;;;;;5132492;27;20206;-66
2021/11/20 03:56:43;;;;;;;71.65;10.52;;;;;;;;;;5132185;27;20216;-66
2021/11/20 03:59:11;;;;;;;70.90;10.67;;;;;;;;;;5132479;27;20204;-66
2021/11/20 04:01:38;;;;;;;72.37;10.90;;;;;;;;;;5132142;27;20465;-66
2021/11/20 04:04:05;;;;;;;72.88;10.63;;;;;;;;;;5132390;27;20441;-67
2021/11/20 04:06:32;;;;;;;69.90;11.07;;;;;;;;;;5132001;27;20213;-66
2021/11/20 04:08:59;;;;;;;71.03;10.35;;;;;;;;;;5132334;27;20230;-65
2021/11/20 04:11:29;;;;;;;72.33;11.20;;;;;;;;;;5132640;27;20223;-66
2021/11/20 04:13:57;;;;;;;75.38;12.60;;;;;;;;;;5132254;27;20456;-66
2021/11/20 04:16:25;;;;;;;68.78;10.45;;;;;;;;;;5131827;27;20209;-66
2021/11/20 04:18:52;;;;;;;68.47;10.70;;;;;;;;;;5132127;27;20200;-66
2021/11/20 04:21:19;;;;;;;78.10;11.63;;;;;;;;;;5132266;27;20224;-67
2021/11/20 04:23:47;;;;;;;69.88;10.48;;;;;;;;;;5132325;27;20226;-67
2021/11/20 04:26:15;;;;;;;69.20;10.40;;;;;;;;;;5131873;27;20212;-66
2021/11/20 04:28:43;;;;;;;71.57;11.90;;;;;;;;;;5131867;27;20487;-66
2021/11/20 04:31:11;;;;;;;72.83;10.67;;;;;;;;;;5132269;27;20573;-66
2021/11/20 04:33:38;;;;;;;70.93;10.73;;;;;;;;;;5132221;27;20453;-65
2021/11/20 04:36:06;;;;;;;70.20;11.03;;;;;;;;;;5131659;27;20451;-66
2021/11/20 04:38:34;;;;;;;71.63;10.40;;;;;;;;;;5134100;27;20451;-66
2021/11/20 04:41:01;;;;;;;71.55;10.88;;;;;;;;;;5135755;27;20224;-66
2021/11/20 04:43:28;;;;;;;69.70;11.45;;;;;;;;;;5135619;27;20213;-67
2021/11/20 04:45:57;;;;;;;73.40;10.80;;;;;;;;;;5135504;27;20588;-66
2021/11/20 04:48:24;;;;;;;71.77;11.50;;;;;;;;;;5135741;27;20459;-66
2021/11/20 04:50:52;;;;;;;71.70;11.68;;;;;;;;;;5135723;27;20505;-66
2021/11/20 04:53:19;;;;;;;71.47;11.43;;;;;;;;;;5135636;27;20207;-66
2021/11/20 04:55:47;;;;;;;69.80;11.00;;;;;;;;;;5135084;27;20204;-64
2021/11/20 04:58:14;;;;;;;72.68;12.57;;;;;;;;;;5135706;27;20204;-66
2021/11/20 05:00:43;;;;;;;71.50;11.55;;;;;;;;;;5135534;27;20214;-66
2021/11/20 05:03:11;;;;;;;70.88;11.85;;;;;;;;;;5135578;27;20257;-66
2021/11/20 05:05:39;;;;;;;73.82;12.85;;;;;;;;;;5135046;27;20211;-66
2021/11/20 05:08:07;;;;;;;72.75;11.73;;;;;;;;;;5135279;27;20207;-66
2021/11/20 05:10:34;;;;;;;75.50;12.57;;;;;;;;;;5135019;27;20229;-66
2021/11/20 05:13:02;;;;;;;75.80;12.93;;;;;;;;;;5135545;27;20445;-66
2021/11/20 05:15:29;;;;;;;72.07;12.43;;;;;;;;;;5134996;27;20244;-66
2021/11/20 05:17:57;;;;;;;72.03;12.70;;;;;;;;;;5135285;27;20198;-66
2021/11/20 05:20:25;;;;;;;74.50;11.57;;;;;;;;;;5135029;27;20259;-66
2021/11/20 05:22:52;;;;;;;74.50;12.50;;;;;;;;;;5134806;27;20229;-66
2021/11/20 05:25:20;;;;;;;76.50;13.27;;;;;;;;;;5134735;27;20940;-63
2021/11/20 05:27:48;;;;;;;77.57;12.68;;;;;;;;;;5134845;27;20473;-64
2021/11/20 05:30:18;;;;;;;74.18;12.30;;;;;;;;;;5134852;27;20227;-67
2021/11/20 05:32:45;;;;;;;76.43;14.73;;;;;;;;;;5134820;27;20250;-66
2021/11/20 05:35:13;;;;;;;73.97;12.27;;;;;;;;;;5134829;27;20204;-66
2021/11/20 05:37:41;;;;;;;77.30;12.55;;;;;;;;;;5134666;27;20237;-66
2021/11/20 05:40:13;;;;;;;73.95;13.38;;;;;;;;;;5134904;27;20200;-66
2021/11/20 05:42:40;;;;;;;77.63;12.60;;;;;;;;;;5134762;27;20250;-65
2021/11/20 05:45:08;;;;;;;73.65;11.35;;;;;;;;;;5134536;27;20596;-67
2021/11/20 05:47:35;;;;;;;73.20;12.68;;;;;;;;;;5134302;27;20590;-66
2021/11/20 05:50:02;;;;;;;73.05;12.70;;;;;;;;;;5133623;27;20219;-64
2021/11/20 05:52:29;;;;;;;71.63;11.73;;;;;;;;;;5134318;27;20229;-66
2021/11/20 05:54:58;;;;;;;75.22;13.02;;;;;;;;;;5134402;27;20208;-65
2021/11/20 05:57:25;;;;;;;72.80;12.10;;;;;;;;;;5134153;27;20242;-66
2021/11/20 05:59:52;;;;;;;76.50;12.98;;;;;;;;;;5134354;27;20665;-66
2021/11/20 06:02:19;;;;;;;78.57;14.38;;;;;;;;;;5134067;27;20733;-65
2021/11/20 06:04:46;;;;;;;75.95;13.63;;;;;;;;;;5134019;27;20684;-66
2021/11/20 06:07:14;;;;;;;76.55;12.98;;;;;;;;;;5133870;27;20573;-66
2021/11/20 06:09:41;;;;;;;78.22;12.75;;;;;;;;;;5134114;27;20732;-66
2021/11/20 06:12:10;;;;;;;72.40;11.07;;;;;;;;;;5133943;27;20506;-66
2021/11/20 06:14:38;;;;;;;76.07;11.80;;;;;;;;;;5134001;27;20208;-66
2021/11/20 06:17:05;;;;;;;73.18;11.45;;;;;;;;;;5133472;27;20214;-64
2021/11/20 06:19:32;;;;;;;72.22;12.57;;;;;;;;;;5134101;27;20203;-66
2021/11/20 06:21:59;;;;;;;73.70;13.13;;;;;;;;;;5134233;27;20220;-66
2021/11/20 06:24:28;;;;;;;74.22;12.20;;;;;;;;;;5134051;27;20209;-66
2021/11/20 06:26:55;;;;;;;81.20;12.88;;;;;;;;;;5133658;27;20209;-67
2021/11/20 06:29:24;;;;;;;74.30;11.73;;;;;;;;;;5133561;27;20576;-66
2021/11/20 06:31:51;;;;;;;76.38;13.70;;;;;;;;;;5133500;27;20255;-66
2021/11/20 06:34:18;;;;;;;72.10;11.85;;;;;;;;;;5133805;27;20207;-66
2021/11/20 06:36:45;;;;;;;76.15;12.95;;;;;;;;;;5133293;27;20203;-66
2021/11/20 06:39:13;;;;;;;73.68;12.40;;;;;;;;;;5133463;27;20203;-66
2021/11/20 06:41:40;;;;;;;73.40;13.02;;;;;;;;;;5133593;27;20617;-67
2021/11/20 06:44:07;;;;;;;78.30;13.18;;;;;;;;;;5133255;27;20216;-66
2021/11/20 06:46:36;;;;;;;76.22;12.88;;;;;;;;;;5133113;27;20202;-65
2021/11/20 06:49:04;;;;;;;72.13;12.35;;;;;;;;;;5133460;27;20241;-66
2021/11/20 06:51:31;;;;;;;73.15;12.80;;;;;;;;;;5133363;27;20224;-66
2021/11/20 06:53:58;;;;;;;76.60;12.23;;;;;;;;;;5133132;27;20688;-66
2021/11/20 06:56:30;;;;;;;77.80;13.15;;;;;;;;;;5132816;27;20444;-66
2021/11/20 06:59:15;;;;;;;76.72;13.30;;;;;;;;;;5133025;27;20299;-67
2021/11/20 07:01:44;;;;;;;76.45;13.23;;;;;;;;;;5132123;27;20230;-66
2021/11/20 07:04:12;;;;;;;78.70;13.87;;;;;;;;;;5133138;27;20217;-66
2021/11/20 07:06:41;;;;;;;78.22;13.90;;;;;;;;;;5132626;27;20455;-66
2021/11/20 07:09:08;;;;;;;74.32;12.50;;;;;;;;;;5132945;27;20203;-67
2021/11/20 07:11:35;;;;;;;77.43;13.90;;;;;;;;;;5133028;27;20234;-66
2021/11/20 07:14:02;;;;;;;73.95;11.82;;;;;;;;;;5132938;27;20203;-66
2021/11/20 07:16:30;;;;;;;77.00;13.68;;;;;;;;;;5132362;27;20208;-67
2021/11/20 07:18:59;;;;;;;74.38;13.05;;;;;;;;;;5132905;27;20202;-66
2021/11/20 07:21:27;;;;;;;71.75;12.45;;;;;;;;;;5133132;27;20226;-66
2021/11/20 07:23:55;;;;;;;76.60;14.10;;;;;;;;;;5132644;27;20297;-65
2021/11/20 07:26:23;;;;;;;75.30;13.13;;;;;;;;;;5132518;27;20586;-66
2021/11/20 07:28:50;;;;;;;75.30;13.37;;;;;;;;;;5132931;27;20217;-66
2021/11/20 07:31:17;;;;;;;74.95;13.25;;;;;;;;;;5132483;27;20489;-66
2021/11/20 07:33:44;;;;;;;76.50;13.95;;;;;;;;;;5132819;27;20225;-66
2021/11/20 07:36:15;;;;;;;74.63;13.18;;;;;;;;;;5132126;27;20199;-66
2021/11/20 07:38:43;;;;;;;80.40;14.90;;;;;;;;;;5132811;27;20203;-66
2021/11/20 07:41:11;;;;;;;76.00;13.00;;;;;;;;;;5132595;27;20221;-66
2021/11/20 07:43:38;;;;;;;74.75;12.85;;;;;;;;;;5132448;27;20453;-66
2021/11/20 07:46:06;;;;;;;74.10;14.00;;;;;;;;;;5132078;27;20214;-67
2021/11/20 07:48:34;;;;;;;74.55;12.68;;;;;;;;;;5132477;27;20209;-67
2021/11/20 07:51:02;;;;;;;74.38;12.82;;;;;;;;;;5132203;27;20265;-66
2021/11/20 07:53:31;;;;;;;75.65;13.63;;;;;;;;;;5132709;27;20583;-67
2021/11/20 07:55:58;;;;;;;76.57;14.00;;;;;;;;;;5131220;27;20211;-66
2021/11/20 07:58:27;;;;;;;79.57;14.40;;;;;;;;;;5132543;27;20203;-66
2021/11/20 08:00:54;;;;;;;79.47;14.55;;;;;;;;;;5132409;27;20219;-65
2021/11/20 08:03:22;;;;;;;78.60;14.13;;;;;;;;;;5132242;27;20586;-67
2021/11/20 08:05:49;;;;;;;74.67;13.40;;;;;;;;;;5132040;27;20472;-66
2021/11/20 08:08:16;;;;;;;74.35;12.73;;;;;;;;;;5132489;27;20444;-65
2021/11/20 08:10:45;;;;;;;77.00;14.20;;;;;;;;;;5132027;27;20230;-67
2021/11/20 08:13:12;;;;;;;77.10;13.67;;;;;;;;;;5133792;27;20446;-67
2021/11/20 08:15:39;;;;;;;74.97;13.43;;;;;;;;;;5136008;27;20451;-66
2021/11/20 08:18:06;;;;;;;74.40;12.52;;;;;;;;;;5136205;27;20215;-66
2021/11/20 08:20:36;;;;;;;73.37;12.77;;;;;;;;;;5136327;27;20577;-67
2021/11/20 08:23:03;;;;;;;78.00;14.70;;;;;;;;;;5136118;27;20931;-66
2021/11/20 08:25:31;;;;;;;76.17;13.17;;;;;;;;;;5135732;27;20454;-66
2021/11/20 08:28:00;;;;;;;73.30;12.90;;;;;;;;;;5136156;27;20442;-68
2021/11/20 08:30:29;;;;;;;72.50;12.80;;;;;;;;;;5135786;27;21013;-67
2021/11/20 08:32:56;;;;;;;73.20;11.97;;;;;;;;;;5135909;27;20478;-67
2021/11/20 08:35:24;;;;;;;102.93;13.70;;;;;;;;;;5132509;27;20454;-66
2021/11/20 08:37:51;;;;;;;77.43;13.57;;;;;;;;;;5134923;27;20447;-64
2021/11/20 08:40:20;;;;;;;74.27;12.40;;;;;;;;;;5133197;27;20457;-65
2021/11/20 08:42:47;;;;;;;77.00;12.90;;;;;;;;;;5134276;27;20466;-64
2021/11/20 08:45:17;;;;;;;74.53;12.80;;;;;;;;;;5134863;27;20807;-65
2021/11/20 08:47:44;;;;;;;74.10;11.90;;;;;;;;;;5134741;27;20530;-64
2021/11/20 08:50:13;;;;;;;74.60;11.93;;;;;;;;;;5134377;27;20485;-65
2021/11/20 08:52:40;;;;;;;76.47;12.57;;;;;;;;;;5134561;27;20471;-65
2021/11/20 08:55:08;;;;;;;76.27;12.10;;;;;;;;;;5134619;27;20546;-64
2021/11/20 08:57:35;;;;;;;77.60;14.80;;;;;;;;;;5134008;27;20460;-63
2021/11/20 09:00:03;;;;;;;75.07;13.43;;;;;;;;;;5134925;27;20439;-65
2021/11/20 09:02:35;;;;;;;76.33;13.50;;;;;;;;;;5134843;27;20494;-64
2021/11/20 09:05:05;;;;;;;75.30;13.23;;;;;;;;;;5134802;27;20453;-65
2021/11/20 09:07:34;;;;;;;71.83;12.27;;;;;;;;;;5134830;27;20955;-65
2021/11/20 09:10:08;;;;;;;73.37;12.20;;;;;;;;;;5134972;27;20488;-63
2021/11/20 09:12:36;;;;;;;80.73;13.50;;;;;;;;;;5133254;27;20474;-65
2021/11/20 09:15:07;;;;;;;74.70;13.10;;;;;;;;;;5134864;27;20450;-64
2021/11/20 09:17:35;;;;;;;74.17;12.07;;;;;;;;;;5134236;27;20454;-66
2021/11/20 09:20:03;;;;;;;73.97;13.27;;;;;;;;;;5135237;27;20450;-65
2021/11/20 09:22:30;;;;;;;75.50;12.40;;;;;;;;;;5134142;27;21009;-63
2021/11/20 09:24:57;;;;;;;71.93;12.10;;;;;;;;;;5133664;27;20448;-65
2021/11/20 09:27:25;;;;;;;75.13;13.00;;;;;;;;;;5134482;27;20568;-64
2021/11/20 09:29:53;;;;;;;73.93;13.23;;;;;;;;;;5114158;28;20458;-65
2021/11/20 09:32:20;;;;;;;75.40;12.50;;;;;;;;;;5114095;28;20473;-65
2021/11/20 09:34:48;;;;;;;71.07;11.60;;;;;;;;;;5113837;28;20448;-64
2021/11/20 09:37:16;;;;;;;70.67;12.43;;;;;;;;;;5113471;28;20448;-64
2021/11/20 09:39:43;;;;;;;72.67;12.40;;;;;;;;;;5113797;28;20459;-64
2021/11/20 09:42:23;;;;;;;72.97;12.20;;;;;;;;;;5113839;28;20478;-65
2021/11/20 09:44:51;;;;;;;70.37;11.40;;;;;;;;;;5113508;28;20450;-65
2021/11/20 09:47:20;;;;;;;71.73;11.43;;;;;;;;;;5113727;28;20519;-65
2021/11/20 09:49:50;;;;;;;74.60;12.20;;;;;;;;;;5113622;28;20827;-64
2021/11/20 09:52:18;;;;;;;70.43;10.60;;;;;;;;;;5113919;28;20628;-65
2021/11/20 09:54:46;;;;;;;69.50;11.30;;;;;;;;;;5113776;28;20718;-65
2021/11/20 09:57:24;;;;;;;70.80;10.13;;;;;;;;;;5112148;28;20966;-64
2021/11/20 09:59:53;;;;;;;73.10;11.53;;;;;;;;;;5112816;28;20448;-64
2021/11/20 10:02:22;;;;;;;71.73;12.40;;;;;;;;;;5112833;27;20472;-64
2021/11/20 10:04:53;;;;;;;72.03;11.37;;;;;;;;;;5112303;28;20457;-64
2021/11/20 10:07:25;;;;;;;69.57;10.90;;;;;;;;;;5113417;28;20443;-65
2021/11/20 10:09:54;;;;;;;69.60;10.93;;;;;;;;;;5121133;27;20489;-65
2021/11/20 10:12:26;;;;;;;72.60;11.73;;;;;;;;;;5132897;27;21008;-65
2021/11/20 10:14:56;;;;;;;72.87;14.07;;;;;;;;;;5133430;27;20935;-64
2021/11/20 10:17:29;;;;;;;69.00;10.23;;;;;;;;;;5133116;27;20452;-65
2021/11/20 10:19:58;;;;;;;69.70;10.17;;;;;;;;;;5133259;27;20490;-65
2021/11/20 10:22:29;;;;;;;69.13;10.30;;;;;;;;;;5132875;27;20471;-65
2021/11/20 10:25:09;;;;;;;73.30;12.27;;;;;;;;;;5132844;27;20458;-64
2021/11/20 10:27:41;;;;;;;69.03;11.27;;;;;;;;;;5133136;27;20928;-64
2021/11/20 10:30:11;;;;;;;75.43;11.37;;;;;;;;;;5133735;27;20461;-65
2021/11/20 10:32:39;;;;;;;67.17;9.13;;;;;;;;;;5133628;27;20478;-65
2021/11/20 10:35:20;;;;;;;68.53;9.13;;;;;;;;;;5133240;27;20933;-65
2021/11/20 10:37:49;;;;;;;66.40;8.90;;;;;;;;;;5133138;27;20447;-65
2021/11/20 10:40:22;;;;;;;63.03;6.70;;;;;;;;;;5133326;27;20458;-63
2021/11/20 10:42:53;;;;;;;63.50;7.07;;;;;;;;;;5130736;27;21002;-65
2021/11/20 10:45:22;;;;;;;63.67;7.57;;;;;;;;;;5132586;27;20448;-62
2021/11/20 10:47:54;;;;;;;66.13;7.37;;;;;;;;;;5133077;27;20821;-65
2021/11/20 10:50:29;;;;;;;68.40;9.03;;;;;;;;;;5133270;27;20443;-64
2021/11/20 10:53:11;;;;;;;70.67;8.47;;;;;;;;;;5132802;27;20471;-65
2021/11/20 10:55:41;;;;;;;70.10;9.17;;;;;;;;;;5129903;27;20965;-65
2021/11/20 10:58:36;;;;;;;68.63;9.37;;;;;;;;;;5132459;27;20538;-65
2021/11/20 11:01:14;;;;;;;63.80;7.40;;;;;;;;;;5132595;27;20466;-64
2021/11/20 11:03:43;;;;;;;62.37;7.07;;;;;;;;;;5131783;27;20881;-64
2021/11/20 11:06:30;;;;;;;66.77;8.10;;;;;;;;;;5132032;27;20463;-64
2021/11/20 11:09:00;;;;;;;66.03;7.70;;;;;;;;;;5132356;27;20448;-65
2021/11/20 11:11:29;;;;;;;66.00;7.93;;;;;;;;;;5132316;27;21017;-65
2021/11/20 11:14:10;;;;;;;67.70;8.33;;;;;;;;;;5130055;27;20452;-64
2021/11/20 11:16:45;;;;;;;66.93;8.13;;;;;;;;;;5131874;27;20472;-65
2021/11/20 11:19:21;;;;;;;65.10;8.20;;;;;;;;;;5132179;27;20450;-64
2021/11/20 11:21:58;;;;;;;66.37;8.00;;;;;;;;;;5132432;27;20463;-64
2021/11/20 11:24:52;;;;;;;64.83;7.20;;;;;;;;;;5131782;27;20453;-64
2021/11/20 11:27:21;;;;;;;63.40;6.80;;;;;;;;;;5131764;27;20487;-64
2021/11/20 11:30:09;;;;;;;63.83;6.33;;;;;;;;;;5132269;27;20998;-65
2021/11/20 11:32:38;;;;;;;64.07;7.30;;;;;;;;;;5127802;27;21034;-65
2021/11/20 11:35:08;;;;;;;65.33;7.83;;;;;;;;;;5132365;27;20453;-64
2021/11/20 11:37:40;;;;;;;64.93;8.10;;;;;;;;;;5131744;27;20451;-65
2021/11/20 11:40:21;;;;;;;65.63;7.60;;;;;;;;;;5132074;27;20445;-65
2021/11/20 11:42:52;;;;;;;65.00;8.37;;;;;;;;;;5131935;27;20467;-65
2021/11/20 11:45:50;;;;;;;65.33;7.90;;;;;;;;;;5130791;27;20462;-65
2021/11/20 11:48:19;;;;;;;64.53;7.40;;;;;;;;;;5133073;27;20488;-65
2021/11/20 11:50:52;;;;;;;64.57;6.23;;;;;;;;;;5136062;27;20490;-64
2021/11/20 11:53:26;;;;;;;64.73;6.20;;;;;;;;;;5136482;27;20459;-64
2021/11/20 11:55:55;;;;;;;63.93;6.77;;;;;;;;;;5135703;27;20461;-65
2021/11/20 11:58:35;;;;;;;65.40;6.90;;;;;;;;;;5135533;27;20450;-64
2021/11/20 12:01:04;;;;;;;62.47;6.30;;;;;;;;;;5135839;27;20490;-65
2021/11/20 12:03:32;;;;;;;64.40;6.70;;;;;;;;;;5135907;27;20813;-65
2021/11/20 12:06:08;;;;;;;67.80;7.33;;;;;;;;;;5135757;27;20466;-64
2021/11/20 12:08:37;;;;;;;67.80;8.37;;;;;;;;;;5135680;27;20454;-65
2021/11/20 12:11:09;;;;;;;66.50;7.57;;;;;;;;;;5135643;27;20487;-64
2021/11/20 12:13:38;;;;;;;64.47;7.00;;;;;;;;;;5135318;27;20456;-64
2021/11/20 12:16:12;;;;;;;66.70;7.57;;;;;;;;;;5135723;27;20455;-63
2021/11/20 12:18:55;;;;;;;63.77;6.50;;;;;;;;;;5135250;27;20620;-65
2021/11/20 12:21:26;;;;;;;64.77;7.33;;;;;;;;;;5135814;27;20467;-65
2021/11/20 12:23:54;;;;;;;73.13;9.10;;;;;;;;;;5133571;27;20720;-64
2021/11/20 12:26:26;;;;;;;67.37;8.87;;;;;;;;;;5134318;27;20454;-65
2021/11/20 12:29:05;;;;;;;64.60;6.50;;;;;;;;;;5134960;27;20451;-65
2021/11/20 12:31:43;;;;;;;63.90;6.50;;;;;;;;;;5135711;27;20485;-65
2021/11/20 12:34:22;;;;;;;64.20;6.37;;;;;;;;;;5135822;27;20440;-65
2021/11/20 12:37:00;;;;;;;64.27;7.00;;;;;;;;;;5135025;27;20451;-64
2021/11/20 12:39:38;;;;;;;65.70;7.50;;;;;;;;;;5135354;27;20498;-65
2021/11/20 12:42:12;;;;;;;64.23;6.70;;;;;;;;;;5135496;27;20471;-64
2021/11/20 12:44:54;;;;;;;67.60;6.47;;;;;;;;;;5134847;27;20445;-65
2021/11/20 12:47:27;;;;;;;64.90;8.43;;;;;;;;;;5134522;27;20457;-63
2021/11/20 12:50:00;;;;;;;65.67;8.00;;;;;;;;;;5135505;27;20451;-65
2021/11/20 12:52:29;;;;;;;64.33;7.10;;;;;;;;;;5135947;27;20487;-65
2021/11/20 12:54:59;;;;;;;66.03;7.90;;;;;;;;;;5133445;27;20543;-64
2021/11/20 12:57:30;;;;;;;64.77;7.40;;;;;;;;;;5113640;28;20955;-64
2021/11/20 12:59:59;;;;;;;66.57;7.40;;;;;;;;;;5114679;28;20462;-65
2021/11/20 13:02:29;;;;;;;64.90;6.70;;;;;;;;;;5114837;28;20984;-65
2021/11/20 13:04:56;;;;;;;65.57;8.77;;;;;;;;;;5114182;28;20443;-65
2021/11/20 13:07:24;;;;;;;67.63;8.00;;;;;;;;;;5113307;28;20948;-65
2021/11/20 13:09:54;;;;;;;67.33;7.77;;;;;;;;;;5114195;28;20452;-65
2021/11/20 13:12:23;;;;;;;68.70;8.07;;;;;;;;;;5114077;28;20507;-66
2021/11/20 13:15:14;;;;;;;64.30;7.60;;;;;;;;;;5114697;28;20448;-65
2021/11/20 13:17:51;;;;;;;64.53;7.60;;;;;;;;;;5103146;27;20972;-65
2021/11/20 13:20:19;;;;;;;66.10;7.70;;;;;;;;;;5114418;28;20444;-65
2021/11/20 13:22:47;;;;;;;64.60;7.47;;;;;;;;;;5113663;28;20468;-65
2021/11/20 13:25:16;;;;;;;66.13;7.10;;;;;;;;;;5113865;28;20455;-65
2021/11/20 13:28:02;;;;;;;72.07;8.47;;;;;;;;;;5118389;27;20542;-65
2021/11/20 13:30:32;;;;;;;78.50;10.60;;;;;;;;;;5134181;27;20451;-65
2021/11/20 13:33:01;;;;;;;65.80;7.50;;;;;;;;;;5134831;27;20484;-65
2021/11/20 13:35:29;;;;;;;63.97;7.23;;;;;;;;;;5134359;27;20451;-65
2021/11/20 13:37:57;;;;;;;67.03;8.07;;;;;;;;;;5134391;27;20821;-65
2021/11/20 13:40:26;;;;;;;66.60;9.00;;;;;;;;;;5134483;27;20823;-65
2021/11/20 13:42:53;;;;;;;67.40;9.20;;;;;;;;;;5133891;27;20463;-65
2021/11/20 13:45:22;;;;;;;75.30;9.20;;;;;;;;;;5133453;27;20453;-64
2021/11/20 13:47:50;;;;;;;68.27;9.00;;;;;;;;;;5134155;27;20446;-65
2021/11/20 13:50:18;;;;;;;64.07;8.37;;;;;;;;;;5133949;27;20444;-66
2021/11/20 13:52:45;;;;;;;67.40;8.50;;;;;;;;;;5134202;27;20998;-65
2021/11/20 13:55:15;;;;;;;67.50;8.30;;;;;;;;;;5134121;27;20455;-65
2021/11/20 13:57:42;;;;;;;65.27;8.47;;;;;;;;;;5133187;27;20972;-64
2021/11/20 14:00:11;;;;;;;65.30;7.93;;;;;;;;;;5132086;27;20458;-65
2021/11/20 14:02:45;;;;;;;66.43;8.63;;;;;;;;;;5133768;27;20466;-65
2021/11/20 14:05:13;;;;;;;66.00;8.40;;;;;;;;;;5133101;27;20469;-65
2021/11/20 14:07:40;;;;;;;67.33;9.47;;;;;;;;;;5132930;27;20966;-65
2021/11/20 14:10:12;;;;;;;80.23;10.60;;;;;;;;;;5132186;27;20459;-65
2021/11/20 14:12:51;;;;;;;67.30;8.90;;;;;;;;;;5133357;27;20495;-65
2021/11/20 14:15:18;;;;;;;65.23;8.10;;;;;;;;;;5133929;27;20987;-65
2021/11/20 14:17:47;;;;;;;68.93;8.87;;;;;;;;;;5133088;27;20979;-66
2021/11/20 14:20:15;;;;;;;69.90;9.33;;;;;;;;;;5133473;27;20454;-65
2021/11/20 14:22:43;;;;;;;72.50;8.47;;;;;;;;;;5133406;27;20475;-64
2021/11/20 14:25:18;;;;;;;65.30;8.23;;;;;;;;;;5132817;27;20507;-66
2021/11/20 14:27:54;;;;;;;67.83;8.20;;;;;;;;;;5132763;27;20452;-65
2021/11/20 14:30:21;;;;;;;68.80;9.10;;;;;;;;;;5132511;27;20961;-66
2021/11/20 14:32:49;;;;;;;65.70;9.10;;;;;;;;;;5131769;27;20486;-66
2021/11/20 14:35:16;;;;;;;70.40;10.53;;;;;;;;;;5133561;27;20457;-66